IFJ weather

Ísafjörður Airport
Ísafjörður, Westfjords, Iceland

Public forecast

Using degrees Celsius for public forecast. Weather courtesy of forecast.io.

Current aviation weather report (METAR) for Ísafjörður Airport

Report is more than 6 hours old.

Retrieved 2019/10/18 18:00 UTC (13 hours ago):

BIIS 181800Z VRB03KT CAVOK 01/M02 Q1019

Closest aviation forecast (TAF) to Ísafjörður Airport

Closest forecast is Reykjavik Airport, 119.6 nm (221.6 km) SSE. Retrieved 2019/10/19 09:27 UTC (0 seconds ago):

TAF BIRK 190720Z 1909/2009 12005KT 9999 SCT020 BKN032 TX06/1915Z TN02/2003Z BECMG 1909/1911 25010KT BECMG 2007/2009 18010KT